Latest Weather Observations for Coondewanna

IDW60801

Issued at 7:32 pm WST Sunday 1 February 2015 (issued every 30 minutes, with the page automatically refreshed every 10 minutes)

About weather observations | Map of weather stations | Latest weather observations for WA | Other Formats
Station Details ID: 505051 Name: COONDEWANNA Lat: -22.96 Lon: 118.81 Height: 697.63 m
Data from the previous 72 hours. | See also: Recent months for locations in Western Australia
Date/Time
WST
Temp
°C
App
Temp
°C
Dew
Point
Rel
Hum
%
Delta-T
°C
Wind Press
QNH
hPa
Press
MSL
hPa
Rain
since 9 am
mm
Dir
 
Spd
km/h
Gust
km/h
Spd
kts
Gust
kts
01/07:30pm 30.8 28.6 10.7 29 11.9 NNW 13 19 7 10 1012.4 1006.3 0.0
01/07:00pm 31.6 29.1 10.9 28 12.3 N 15 20 8 11 1012.3 1006.2 0.0
01/06:30pm 32.6 29.2 10.6 26 13.1 NNW 19 30 10 16 1011.8 1005.8 0.0
01/06:00pm 33.8 31.1 10.4 24 14.0 N 15 26 8 14 1011.7 1005.7 0.0
01/05:30pm 34.1 30.5 10.7 24 14.0 N 20 28 11 15 1011.6 1005.6 0.0
01/05:00pm 33.9 30.9 10.5 24 14.0 NNE 17 28 9 15 1011.5 1005.4 0.0
01/04:30pm 33.6 30.5 10.2 24 13.9 N 17 28 9 15 1011.6 1005.6 0.0
01/04:00pm 33.5 31.1 10.2 24 13.8 NNE 13 22 7 12 1011.5 1005.4 0.0
01/03:30pm 34.8 31.8 10.6 23 14.5 NNE 17 32 9 17 1011.8 1005.8 0.0
01/03:00pm 34.3 32.3 11.4 25 13.9 NNE 13 22 7 12 1012.2 1006.1 0.0
01/02:30pm 33.2 30.9 11.7 27 13.0 NW 15 30 8 16 1012.5 1006.4 0.0
01/02:00pm 34.0 30.8 11.8 26 13.5 NNW 20 32 11 17 1012.8 1006.7 0.0
01/01:30pm 34.1 31.3 11.3 25 13.8 NNW 17 26 9 14 1013.0 1007.0 0.0
01/01:00pm 32.6 31.2 12.3 29 12.4 NNE 11 20 6 11 1013.4 1007.4 0.0
01/12:30pm 33.1 32.2 12.7 29 12.5 S 9 20 5 11 1013.5 1007.5 0.0
01/12:00pm 31.7 29.0 13.0 32 11.5 NNW 19 39 10 21 1013.9 1007.8 0.0
01/11:30am 30.4 29.1 13.7 36 10.3 WNW 13 20 7 11 1014.2 1008.1 0.0
01/11:00am 30.2 29.5 14.3 38 9.9 ENE 11 20 6 11 1014.5 1008.5 0.0
01/10:30am 28.2 28.0 14.8 44 8.4 N 9 17 5 9 1014.7 1008.7 0.0
01/10:00am 28.4 29.1 16.0 47 7.9 S 7 15 4 8 1014.9 1008.9 0.0
01/09:30am 26.8 26.7 14.9 48 7.4 WNW 9 20 5 11 1015.0 1009.0 0.0
01/09:00am 26.2 26.4 16.7 56 6.0 SW 11 19 6 10 1015.2 1009.1 0.8
01/08:30am 25.6 25.7 17.5 61 5.2 SW 13 22 7 12 1015.2 1009.1 0.8
01/08:07am 24.8 24.7 17.8 65 4.5 SSW 15 20 8 11 1014.9 1008.9 0.8
01/08:00am 24.8 24.6 17.5 64 4.7 SSW 15 20 8 11 1014.9 1008.9 0.8
01/07:54am 24.6 24.5 17.8 66 4.4 SW 15 20 8 11 1014.8 1008.5 0.8
01/07:30am 24.2 24.5 17.9 68 4.1 SW 13 20 7 11 1014.7 1008.4 0.8
01/07:00am 23.7 24.4 17.9 70 3.7 SW 11 15 6 8 1014.4 1008.0 0.8
01/06:30am 23.1 24.5 17.3 70 3.7 W 6 9 3 5 1014.0 1007.6 0.8
01/06:00am 21.7 24.2 17.3 76 2.8 CALM 0 2 0 1 1013.3 1007.0 0.8
01/05:30am 21.9 23.1 17.3 75 2.9 W 7 7 4 4 1013.0 1006.6 0.8
01/05:00am 22.2 23.0 17.3 74 3.1 W 9 13 5 7 1012.6 1006.2 0.8
01/04:30am 22.7 22.7 17.2 71 3.5 NW 13 19 7 10 1012.4 1006.0 0.8
01/04:00am 22.7 24.1 17.4 72 3.4 NNW 6 9 3 5 1012.2 1005.8 0.8
01/03:30am 22.9 23.6 17.1 70 3.7 NNW 9 11 5 6 1011.9 1005.6 0.8
01/03:00am 23.0 23.5 16.5 67 4.1 NNW 9 13 5 7 1011.8 1005.4 0.8
01/02:30am 23.2 23.9 16.0 64 4.5 N 7 11 4 6 1011.7 1005.3 0.8
01/02:00am 23.7 25.1 15.5 60 5.1 N 2 7 1 4 1011.5 1005.1 0.8
01/01:30am 24.3 25.2 15.0 56 5.7 N 4 6 2 3 1011.4 1005.0 0.8
01/01:00am 24.8 24.8 15.1 54 6.0 N 9 9 5 5 1011.5 1005.1 0.8
01/12:30am 25.3 25.1 14.7 51 6.5 NNW 9 11 5 6 1011.5 1005.1 0.8
01/12:00am 26.2 26.1 14.0 47 7.5 NNW 7 13 4 7 1011.6 1005.2 0.8
 
Date/Time
WST
Temp
°C
App
Temp
°C
Dew
Point
Rel
Hum
%
Delta-T
°C
Wind Press
QNH
hPa
Press
MSL
hPa
Rain
since 9 am
mm
Dir
 
Spd
km/h
Gust
km/h
Spd
kts
Gust
kts
31/11:30pm 26.8 26.0 13.9 45 7.9 NNW 11 15 6 8 1011.7 1005.3 0.8
31/11:00pm 27.5 26.0 13.1 41 8.7 N 13 17 7 9 1011.8 1005.4 0.8
31/10:30pm 27.8 25.6 13.3 40 8.8 NNW 17 24 9 13 1011.6 1005.2 0.8
31/10:00pm 28.5 26.8 12.4 37 9.7 N 13 19 7 10 1011.2 1004.8 0.8
31/09:30pm 28.3 27.3 12.2 37 9.6 N 9 13 5 7 1010.9 1004.5 0.8
31/09:00pm 28.9 27.8 11.9 35 10.2 NNW 9 13 5 7 1010.8 1004.4 0.8
31/08:30pm 29.5 27.5 11.5 33 10.7 N 13 15 7 8 1010.6 1004.2 0.8
31/08:00pm 30.1 28.0 11.1 31 11.3 N 13 17 7 9 1010.4 1004.0 0.8
31/07:30pm 30.8 28.6 10.7 29 11.9 N 13 20 7 11 1010.2 1003.8 0.8
31/07:00pm 31.6 28.5 10.3 27 12.6 N 17 24 9 13 1009.8 1003.4 0.8
31/06:30pm 32.3 28.7 10.4 26 13.0 NNW 20 28 11 15 1009.5 1003.1 0.8
31/06:00pm 33.5 30.2 10.8 25 13.6 NNW 19 30 10 16 1009.3 1002.9 0.8
31/05:30pm 33.7 29.8 10.9 25 13.7 NNW 22 33 12 18 1009.2 1002.7 0.8
31/05:00pm 34.5 31.4 11.6 25 14.0 NW 19 32 10 17 1009.1 1002.6 0.8
31/04:30pm 34.5 31.8 11.6 25 13.9 N 17 28 9 15 1008.9 1002.5 0.8
31/04:00pm 33.5 29.8 10.2 24 13.8 NNW 20 28 11 15 1008.9 1002.5 0.8
31/03:30pm 34.1 30.0 8.7 21 14.8 N 20 30 11 16 1009.1 1002.6 0.8
31/03:00pm 33.8 32.6 12.7 27 13.0 NNE 11 20 6 11 1009.3 1002.9 0.8
31/02:30pm 33.8 31.6 13.3 29 12.7 N 17 26 9 14 1009.5 1003.1 0.8
31/02:00pm 33.3 31.9 13.4 30 12.4 NNE 13 22 7 12 1009.8 1003.4 0.8
31/01:30pm 32.9 31.9 14.5 33 11.6 NNE 13 20 7 11 1010.2 1003.8 0.8
31/01:00pm 32.8 31.5 14.9 34 11.4 N 15 28 8 15 1010.4 1004.0 0.8
31/12:30pm 31.2 30.7 14.8 37 10.3 NNE 11 20 6 11 1010.8 1004.4 0.8
31/12:00pm 30.8 30.8 17.1 43 8.9 N 13 20 7 11 1011.0 1004.6 0.8
31/11:30am 29.9 29.5 18.0 48 7.8 N 17 26 9 14 1011.4 1005.0 0.8
31/11:00am 29.5 29.3 18.6 52 7.2 N 17 26 9 14 1011.8 1005.4 0.8
31/10:30am 28.8 28.4 18.9 55 6.6 N 19 28 10 15 1012.2 1005.8 0.8
31/10:00am 28.0 28.0 19.0 58 6.0 N 17 24 9 13 1012.4 1006.0 0.0
31/09:30am 26.8 27.4 19.4 64 4.9 N 15 24 8 13 1012.4 1006.0 0.0
31/09:00am 26.3 27.6 19.2 65 4.7 NE 11 17 6 9 1012.4 1006.0 1.4
31/08:30am 25.5 25.4 18.7 66 4.5 NE 17 24 9 13 1012.4 1006.0 1.4
31/08:00am 25.0 25.7 18.9 69 4.0 NE 13 19 7 10 1012.4 1006.0 1.4
31/07:30am 23.7 24.0 18.8 74 3.2 ENE 15 19 8 10 1012.3 1005.9 1.4
31/07:00am 22.9 23.4 18.4 76 2.9 ENE 13 19 7 10 1012.1 1005.7 1.4
31/06:30am 22.1 23.2 18.1 78 2.6 E 9 13 5 7 1011.8 1005.4 1.4
31/06:00am 21.2 22.6 17.8 81 2.2 ENE 7 13 4 7 1011.5 1005.1 1.4
31/05:30am 21.0 21.3 17.8 82 2.0 E 13 19 7 10 1011.5 1005.1 1.4
31/05:00am 21.2 20.0 17.6 80 2.3 ESE 20 26 11 14 1011.6 1005.2 1.4
31/04:30am 21.5 20.5 17.9 80 2.3 ESE 20 28 11 15 1011.3 1004.9 1.4
31/04:00am 22.1 21.2 18.3 79 2.4 SE 20 30 11 16 1011.3 1004.9 1.4
31/03:48am 22.3 21.1 18.5 79 2.5 SE 22 30 12 16 1011.3 1004.9 1.4
31/03:30am 22.4 22.0 19.0 81 2.2 SSE 19 24 10 13 1011.3 1004.9 1.4
31/03:29am 22.4 22.1 19.2 82 2.1 SSE 19 24 10 13 1011.3 1004.9 1.4
31/03:00am 23.0 23.3 19.6 81 2.2 SE 17 24 9 13 1011.3 1004.9 1.4
31/02:58am 23.0 23.7 19.6 81 2.2 SE 15 22 8 12 1011.3 1004.9 1.4
31/02:30am 22.8 24.0 19.8 83 2.0 SSE 13 17 7 9 1011.4 1005.0 1.4
31/02:20am 22.7 24.7 19.9 84 1.8 S 9 13 5 7 1011.4 1005.0 1.4
31/02:00am 22.3 24.1 19.5 84 1.8 S 9 13 5 7 1011.4 1005.0 1.4
31/01:30am 22.3 23.5 19.1 82 2.1 SSW 11 15 6 8 1011.3 1004.9 1.4
31/01:00am 22.6 23.8 19.0 80 2.3 SSW 11 13 6 7 1011.5 1005.1 1.4
31/12:30am 23.2 23.0 18.5 75 3.0 SSW 17 22 9 12 1011.7 1005.3 1.4
31/12:00am 23.7 22.8 17.7 69 3.9 SSW 19 28 10 15 1011.8 1005.4 1.4
 
Date/Time
WST
Temp
°C
App
Temp
°C
Dew
Point
Rel
Hum
%
Delta-T
°C
Wind Press
QNH
hPa
Press
MSL
hPa
Rain
since 9 am
mm
Dir
 
Spd
km/h
Gust
km/h
Spd
kts
Gust
kts
30/11:30pm 24.0 23.8 17.5 67 4.2 SW 15 19 8 10 1011.3 1004.9 1.4
30/11:00pm 24.9 24.1 17.1 62 5.0 S 17 20 9 11 1011.4 1005.0 1.4
30/10:30pm 25.6 25.5 17.0 59 5.5 SSE 13 20 7 11 1012.1 1005.7 1.4
30/10:00pm 25.9 27.8 19.8 69 4.1 SW 9 13 5 7 1010.6 1004.2 1.4
30/09:30pm 26.0 29.1 21.0 74 3.4 WSW 6 13 3 7 1009.9 1003.5 1.4
30/09:00pm 26.5 30.7 21.0 72 3.7 CALM 0 2 0 1 1009.5 1003.1 1.4
30/08:30pm 26.7 29.4 20.3 68 4.3 NW 6 9 3 5 1008.9 1002.5 1.4
30/08:00pm 26.4 30.1 20.0 68 4.3 CALM 0 0 0 0 1008.8 1002.4 1.4
30/07:30pm 26.4 29.2 18.8 63 5.0 NW 2 6 1 3 1008.6 1002.2 1.4
30/07:00pm 26.4 28.2 17.5 58 5.8 NW 4 7 2 4 1008.4 1002.0 1.4
30/06:30pm 26.0 24.1 17.6 60 5.4 SSW 24 30 13 16 1007.4 1001.0 1.2
30/06:00pm 28.8 27.1 15.7 45 8.3 S 19 26 10 14 1007.2 1000.8 0.2
30/05:30pm 30.0 28.2 16.1 43 8.9 S 20 32 11 17 1007.3 1000.9 0.0
30/05:00pm 30.1 27.4 17.5 46 8.2 SSW 28 57 15 31 1007.4 1001.0 0.0
30/04:55pm 31.6 28.6 14.7 36 10.6 SSW 24 57 13 31 1007.3 1000.9 0.0
30/04:30pm 34.2 31.7 13.6 29 12.9 NW 19 28 10 15 1006.8 1000.4 0.0
30/04:00pm 35.0 32.2 13.2 27 13.6 NW 20 33 11 18 1006.9 1000.5 0.0
30/03:30pm 34.0 32.0 14.0 30 12.6 NNW 17 26 9 14 1007.3 1000.9 0.0
30/03:00pm 35.6 33.9 13.7 27 13.8 NW 15 26 8 14 1007.6 1001.1 0.0
30/02:30pm 33.9 32.3 13.9 30 12.5 NW 15 26 8 14 1008.3 1001.9 0.0
30/02:00pm 34.3 34.1 14.7 30 12.5 NW 9 26 5 14 1008.7 1002.3 0.0
30/01:30pm 33.5 32.3 15.0 32 11.8 WNW 15 24 8 13 1009.3 1002.9 0.0
30/01:00pm 33.2 33.6 15.2 33 11.5 W 7 15 4 8 1009.7 1003.3 0.0
30/12:30pm 32.2 31.0 13.9 33 11.4 NNE 13 20 7 11 1010.1 1003.7 0.0
30/12:00pm 31.6 29.9 14.7 36 10.7 NNW 17 26 9 14 1010.6 1004.2 0.0
30/11:30am 31.4 30.5 15.8 39 10.0 NNE 15 24 8 13 1010.8 1004.4 0.0
30/11:00am 30.8 30.0 15.2 38 9.9 N 13 26 7 14 1011.2 1004.8 0.0
30/10:30am 29.8 29.6 16.6 45 8.5 N 13 20 7 11 1011.4 1005.0 0.0
30/10:00am 28.2 27.8 16.1 47 7.7 ENE 13 20 7 11 1011.8 1005.4 0.0
30/09:30am 27.3 26.8 16.9 53 6.7 ENE 15 20 8 11 1012.1 1005.7 0.0
30/09:00am 26.9 26.5 16.2 52 6.8 ENE 13 20 7 11 1012.3 1005.9 10.2
30/08:30am 26.3 26.0 17.4 58 5.7 ESE 15 20 8 11 1012.3 1005.9 10.2
30/08:00am 25.2 24.8 17.1 60 5.2 E 15 19 8 10 1012.2 1005.8 10.2
30/07:30am 23.6 25.1 17.6 69 3.8 E 6 9 3 5 1012.3 1005.9 10.2
30/07:00am 22.6 24.6 17.9 75 3.0 ENE 4 7 2 4 1011.9 1005.6 10.2
30/06:30am 21.3 22.9 17.9 81 2.2 ENE 6 7 3 4 1011.8 1005.4 10.2
30/06:00am 20.5 21.9 17.9 85 1.7 ENE 7 9 4 5 1011.5 1005.1 10.2
30/05:30am 21.2 22.3 17.2 78 2.5 E 7 11 4 6 1011.4 1005.0 10.2
30/05:00am 21.3 22.4 17.1 77 2.7 E 7 11 4 6 1011.0 1004.6 10.2
30/04:30am 21.6 22.2 17.8 79 2.4 SE 11 15 6 8 1010.7 1004.3 10.0
30/04:00am 21.1 24.0 18.3 84 1.8 CALM 0 4 0 2 1010.8 1004.4 10.0
30/03:30am 21.5 22.1 17.7 79 2.4 S 11 17 6 9 1011.0 1004.6 10.0
30/03:00am 21.6 23.2 18.2 81 2.2 SSW 7 9 4 5 1011.1 1004.7 10.0
30/02:30am 22.3 22.2 17.9 76 2.8 S 15 19 8 10 1011.0 1004.6 10.0
30/02:00am 22.7 23.2 17.4 72 3.4 SSW 11 15 6 8 1010.8 1004.4 10.0
30/01:30am 22.9 21.0 16.7 68 3.9 S 22 30 12 16 1010.8 1004.4 10.0
30/01:00am 23.1 20.8 15.7 63 4.6 SSE 22 32 12 17 1010.7 1004.3 10.0
30/12:33am 22.0 19.0 16.9 73 3.2 S 28 48 15 26 1011.5 1005.1 10.0
30/12:30am 22.2 19.8 16.5 70 3.6 S 24 48 13 26 1011.5 1005.1 10.0
30/12:28am 21.4 20.4 17.6 79 2.4 SSW 19 48 10 26 1011.5 1005.1 10.0
30/12:00am 20.9 21.2 17.9 83 1.9 SSW 13 15 7 8 1009.9 1003.5 10.0
 
Date/Time
WST
Temp
°C
App
Temp
°C
Dew
Point
Rel
Hum
%
Delta-T
°C
Wind Press
QNH
hPa
Press
MSL
hPa
Rain
since 9 am
mm
Dir
 
Spd
km/h
Gust
km/h
Spd
kts
Gust
kts
29/11:30pm 20.5 20.4 17.9 85 1.7 NW 15 19 8 10 1009.5 1003.1 10.0
29/11:00pm 20.8 21.6 17.2 80 2.3 WNW 9 13 5 7 1010.3 1003.9 10.0
29/10:30pm 20.9 21.5 16.9 78 2.5 NE 9 13 5 7 1010.3 1003.9 10.0
29/10:00pm 20.1 19.7 18.0 88 1.3 ENE 17 20 9 11 1011.1 1004.7 10.0
29/09:30pm 20.0 19.9 18.7 92 0.8 NE 17 24 9 13 1012.7 1006.3 9.6
29/09:00pm 20.1 21.9 18.4 90 1.1 W 6 9 3 5 1013.9 1007.5 6.6
29/08:30pm 20.8 18.9 17.6 82 2.0 WSW 24 33 13 18 1013.8 1007.4 3.8
29/08:00pm 24.7 22.6 15.3 56 5.8 SW 20 28 11 15 1012.6 1006.2 2.4

Other Formats:

Comma delimited format used in spreadsheet applications
http://www.bom.gov.au/fwo/IDW60801/IDW60801.99312.axf

JavaScript Object Notation format (JSON) in row-major order
http://www.bom.gov.au/fwo/IDW60801/IDW60801.99312.json